sensor_id;sensor_type;location;lat;lon;timestamp;P1;durP1;ratioP1;P2;durP2;ratioP2
59504;SDS011;45321;53.200;5.814;2023-04-06T00:01:11;8.13;;;6.10;;
59504;SDS011;45321;53.200;5.814;2023-04-06T00:03:37;10.50;;;6.18;;
59504;SDS011;45321;53.200;5.814;2023-04-06T00:06:03;7.35;;;5.95;;
59504;SDS011;45321;53.200;5.814;2023-04-06T00:08:29;6.75;;;5.97;;
59504;SDS011;45321;53.200;5.814;2023-04-06T00:10:55;8.05;;;6.18;;
59504;SDS011;45321;53.200;5.814;2023-04-06T00:13:21;9.70;;;5.65;;
59504;SDS011;45321;53.200;5.814;2023-04-06T00:15:47;8.38;;;5.80;;
59504;SDS011;45321;53.200;5.814;2023-04-06T00:18:13;7.55;;;6.07;;
59504;SDS011;45321;53.200;5.814;2023-04-06T00:20:39;8.55;;;6.35;;
59504;SDS011;45321;53.200;5.814;2023-04-06T00:23:05;9.68;;;6.13;;
59504;SDS011;45321;53.200;5.814;2023-04-06T00:25:31;8.55;;;5.85;;
59504;SDS011;45321;53.200;5.814;2023-04-06T00:27:57;10.55;;;6.35;;
59504;SDS011;45321;53.200;5.814;2023-04-06T00:30:22;8.70;;;6.00;;
59504;SDS011;45321;53.200;5.814;2023-04-06T00:32:48;9.05;;;6.10;;
59504;SDS011;45321;53.200;5.814;2023-04-06T00:35:14;8.75;;;6.28;;
59504;SDS011;45321;53.200;5.814;2023-04-06T00:37:41;7.13;;;5.95;;
59504;SDS011;45321;53.200;5.814;2023-04-06T00:40:06;7.68;;;5.57;;
59504;SDS011;45321;53.200;5.814;2023-04-06T00:42:33;8.63;;;6.05;;
59504;SDS011;45321;53.200;5.814;2023-04-06T00:44:59;7.60;;;6.00;;
59504;SDS011;45321;53.200;5.814;2023-04-06T00:47:26;7.80;;;6.28;;
59504;SDS011;45321;53.200;5.814;2023-04-06T00:49:53;7.32;;;5.53;;
59504;SDS011;45321;53.200;5.814;2023-04-06T00:52:19;6.63;;;5.95;;
59504;SDS011;45321;53.200;5.814;2023-04-06T00:54:46;8.10;;;6.00;;
59504;SDS011;45321;53.200;5.814;2023-04-06T00:57:12;6.75;;;5.95;;
59504;SDS011;45321;53.200;5.814;2023-04-06T00:59:38;7.43;;;5.55;;
59504;SDS011;45321;53.200;5.814;2023-04-06T01:02:04;9.18;;;6.22;;
59504;SDS011;45321;53.200;5.814;2023-04-06T01:04:31;6.82;;;5.95;;
59504;SDS011;45321;53.200;5.814;2023-04-06T01:06:57;8.40;;;5.20;;
59504;SDS011;45321;53.200;5.814;2023-04-06T01:09:23;6.38;;;5.40;;
59504;SDS011;45321;53.200;5.814;2023-04-06T01:11:49;8.23;;;6.00;;
59504;SDS011;45321;53.200;5.814;2023-04-06T01:14:15;8.30;;;6.20;;
59504;SDS011;45321;53.200;5.814;2023-04-06T01:16:40;7.18;;;5.93;;
59504;SDS011;45321;53.200;5.814;2023-04-06T01:19:08;7.15;;;5.88;;
59504;SDS011;45321;53.200;5.814;2023-04-06T01:21:37;7.43;;;5.50;;
59504;SDS011;45321;53.200;5.814;2023-04-06T01:24:04;6.88;;;6.07;;
59504;SDS011;45321;53.200;5.814;2023-04-06T01:26:31;7.85;;;6.00;;
59504;SDS011;45321;53.200;5.814;2023-04-06T01:28:57;9.63;;;6.30;;
59504;SDS011;45321;53.200;5.814;2023-04-06T01:31:23;8.68;;;5.85;;
59504;SDS011;45321;53.200;5.814;2023-04-06T01:33:49;6.03;;;5.05;;
59504;SDS011;45321;53.200;5.814;2023-04-06T01:36:16;8.48;;;6.20;;
59504;SDS011;45321;53.200;5.814;2023-04-06T01:38:42;8.80;;;5.70;;
59504;SDS011;45321;53.200;5.814;2023-04-06T01:41:08;9.27;;;5.47;;
59504;SDS011;45321;53.200;5.814;2023-04-06T01:43:34;9.98;;;6.50;;
59504;SDS011;45321;53.200;5.814;2023-04-06T01:46:00;6.93;;;5.65;;
59504;SDS011;45321;53.200;5.814;2023-04-06T01:48:26;7.68;;;5.90;;
59504;SDS011;45321;53.200;5.814;2023-04-06T01:50:52;7.00;;;5.63;;
59504;SDS011;45321;53.200;5.814;2023-04-06T01:53:18;7.70;;;6.00;;
59504;SDS011;45321;53.200;5.814;2023-04-06T01:55:44;7.05;;;5.97;;
59504;SDS011;45321;53.200;5.814;2023-04-06T01:58:10;23.98;;;6.90;;
59504;SDS011;45321;53.200;5.814;2023-04-06T02:00:36;7.07;;;6.15;;
59504;SDS011;45321;53.200;5.814;2023-04-06T02:03:02;6.32;;;5.70;;
59504;SDS011;45321;53.200;5.814;2023-04-06T02:05:29;6.65;;;5.60;;
59504;SDS011;45321;53.200;5.814;2023-04-06T02:07:55;7.93;;;6.05;;
59504;SDS011;45321;53.200;5.814;2023-04-06T02:10:21;6.88;;;5.25;;
59504;SDS011;45321;53.200;5.814;2023-04-06T02:12:47;8.80;;;5.80;;
59504;SDS011;45321;53.200;5.814;2023-04-06T02:15:14;8.05;;;5.95;;
59504;SDS011;45321;53.200;5.814;2023-04-06T02:17:40;8.13;;;5.68;;
59504;SDS011;45321;53.200;5.814;2023-04-06T02:20:07;10.05;;;5.60;;
59504;SDS011;45321;53.200;5.814;2023-04-06T02:22:34;6.95;;;5.85;;
59504;SDS011;45321;53.200;5.814;2023-04-06T02:25:00;8.85;;;5.88;;
59504;SDS011;45321;53.200;5.814;2023-04-06T02:27:26;7.47;;;5.57;;
59504;SDS011;45321;53.200;5.814;2023-04-06T02:29:52;10.10;;;6.15;;
59504;SDS011;45321;53.200;5.814;2023-04-06T02:32:18;7.30;;;5.93;;
59504;SDS011;45321;53.200;5.814;2023-04-06T02:34:44;7.32;;;5.45;;
59504;SDS011;45321;53.200;5.814;2023-04-06T02:37:10;8.00;;;5.93;;
59504;SDS011;45321;53.200;5.814;2023-04-06T02:39:35;8.35;;;6.38;;
59504;SDS011;45321;53.200;5.814;2023-04-06T02:42:01;8.95;;;6.68;;
59504;SDS011;45321;53.200;5.814;2023-04-06T02:44:27;5.90;;;5.38;;
59504;SDS011;45321;53.200;5.814;2023-04-06T02:46:53;7.68;;;5.85;;
59504;SDS011;45321;53.200;5.814;2023-04-06T02:49:18;9.73;;;6.13;;
59504;SDS011;45321;53.200;5.814;2023-04-06T02:51:44;7.00;;;6.20;;
59504;SDS011;45321;53.200;5.814;2023-04-06T02:54:10;7.75;;;5.85;;
59504;SDS011;45321;53.200;5.814;2023-04-06T02:56:36;7.75;;;5.97;;
59504;SDS011;45321;53.200;5.814;2023-04-06T02:59:01;8.07;;;6.25;;
59504;SDS011;45321;53.200;5.814;2023-04-06T03:01:27;9.30;;;6.45;;
59504;SDS011;45321;53.200;5.814;2023-04-06T03:03:53;9.50;;;6.72;;
59504;SDS011;45321;53.200;5.814;2023-04-06T03:06:19;7.70;;;6.60;;
59504;SDS011;45321;53.200;5.814;2023-04-06T03:08:44;7.47;;;6.15;;
59504;SDS011;45321;53.200;5.814;2023-04-06T03:11:10;8.32;;;6.70;;
59504;SDS011;45321;53.200;5.814;2023-04-06T03:13:36;9.02;;;6.70;;
59504;SDS011;45321;53.200;5.814;2023-04-06T03:16:04;10.80;;;7.10;;
59504;SDS011;45321;53.200;5.814;2023-04-06T03:18:30;8.30;;;6.43;;
59504;SDS011;45321;53.200;5.814;2023-04-06T03:20:56;8.75;;;6.78;;
59504;SDS011;45321;53.200;5.814;2023-04-06T03:23:22;10.45;;;6.90;;
59504;SDS011;45321;53.200;5.814;2023-04-06T03:25:48;10.77;;;7.25;;
59504;SDS011;45321;53.200;5.814;2023-04-06T03:28:14;10.30;;;6.97;;
59504;SDS011;45321;53.200;5.814;2023-04-06T03:30:41;10.25;;;6.90;;
59504;SDS011;45321;53.200;5.814;2023-04-06T03:33:07;7.97;;;6.90;;
59504;SDS011;45321;53.200;5.814;2023-04-06T03:35:32;7.97;;;6.68;;
59504;SDS011;45321;53.200;5.814;2023-04-06T03:37:58;9.43;;;6.82;;
59504;SDS011;45321;53.200;5.814;2023-04-06T03:40:24;7.60;;;6.57;;
59504;SDS011;45321;53.200;5.814;2023-04-06T03:42:50;7.95;;;6.70;;
59504;SDS011;45321;53.200;5.814;2023-04-06T03:45:16;8.57;;;6.70;;
59504;SDS011;45321;53.200;5.814;2023-04-06T03:47:42;9.43;;;6.68;;
59504;SDS011;45321;53.200;5.814;2023-04-06T03:50:08;8.32;;;6.85;;
59504;SDS011;45321;53.200;5.814;2023-04-06T03:52:34;8.55;;;6.75;;
59504;SDS011;45321;53.200;5.814;2023-04-06T03:55:01;12.35;;;7.03;;
59504;SDS011;45321;53.200;5.814;2023-04-06T03:57:27;8.35;;;6.60;;
59504;SDS011;45321;53.200;5.814;2023-04-06T03:59:53;9.27;;;7.00;;
59504;SDS011;45321;53.200;5.814;2023-04-06T04:02:18;9.77;;;7.32;;
59504;SDS011;45321;53.200;5.814;2023-04-06T04:04:44;8.13;;;7.20;;
59504;SDS011;45321;53.200;5.814;2023-04-06T04:07:10;8.35;;;7.45;;
59504;SDS011;45321;53.200;5.814;2023-04-06T04:09:36;11.50;;;7.47;;
59504;SDS011;45321;53.200;5.814;2023-04-06T04:12:02;8.50;;;7.10;;
59504;SDS011;45321;53.200;5.814;2023-04-06T04:14:28;9.18;;;6.97;;
59504;SDS011;45321;53.200;5.814;2023-04-06T04:16:54;8.25;;;7.07;;
59504;SDS011;45321;53.200;5.814;2023-04-06T04:19:20;10.52;;;7.63;;
59504;SDS011;45321;53.200;5.814;2023-04-06T04:21:46;9.38;;;7.90;;
59504;SDS011;45321;53.200;5.814;2023-04-06T04:24:12;12.07;;;8.38;;
59504;SDS011;45321;53.200;5.814;2023-04-06T04:26:38;11.80;;;7.80;;
59504;SDS011;45321;53.200;5.814;2023-04-06T04:29:04;10.63;;;8.48;;
59504;SDS011;45321;53.200;5.814;2023-04-06T04:31:30;9.43;;;7.88;;
59504;SDS011;45321;53.200;5.814;2023-04-06T04:33:57;9.98;;;7.28;;
59504;SDS011;45321;53.200;5.814;2023-04-06T04:36:23;8.57;;;7.68;;
59504;SDS011;45321;53.200;5.814;2023-04-06T04:38:51;8.85;;;7.68;;
59504;SDS011;45321;53.200;5.814;2023-04-06T04:41:17;9.07;;;7.25;;
59504;SDS011;45321;53.200;5.814;2023-04-06T04:43:43;9.55;;;8.20;;
59504;SDS011;45321;53.200;5.814;2023-04-06T04:46:09;10.98;;;7.90;;
59504;SDS011;45321;53.200;5.814;2023-04-06T04:48:35;9.07;;;7.47;;
59504;SDS011;45321;53.200;5.814;2023-04-06T04:51:01;10.27;;;7.32;;
59504;SDS011;45321;53.200;5.814;2023-04-06T04:53:26;9.65;;;7.68;;
59504;SDS011;45321;53.200;5.814;2023-04-06T04:55:52;12.13;;;7.88;;
59504;SDS011;45321;53.200;5.814;2023-04-06T04:58:18;11.27;;;8.10;;
59504;SDS011;45321;53.200;5.814;2023-04-06T05:00:47;9.80;;;7.60;;
59504;SDS011;45321;53.200;5.814;2023-04-06T05:03:22;8.32;;;7.47;;
59504;SDS011;45321;53.200;5.814;2023-04-06T05:05:49;10.15;;;7.97;;
59504;SDS011;45321;53.200;5.814;2023-04-06T05:08:15;12.70;;;8.30;;
59504;SDS011;45321;53.200;5.814;2023-04-06T05:10:41;9.23;;;7.78;;
59504;SDS011;45321;53.200;5.814;2023-04-06T05:13:07;10.25;;;8.80;;
59504;SDS011;45321;53.200;5.814;2023-04-06T05:15:33;11.27;;;8.23;;
59504;SDS011;45321;53.200;5.814;2023-04-06T05:18:05;10.43;;;8.55;;
59504;SDS011;45321;53.200;5.814;2023-04-06T05:20:34;10.63;;;8.40;;
59504;SDS011;45321;53.200;5.814;2023-04-06T05:23:00;13.60;;;8.90;;
59504;SDS011;45321;53.200;5.814;2023-04-06T05:25:26;12.35;;;8.13;;
59504;SDS011;45321;53.200;5.814;2023-04-06T05:27:52;12.63;;;8.35;;
59504;SDS011;45321;53.200;5.814;2023-04-06T05:30:18;11.55;;;8.73;;
59504;SDS011;45321;53.200;5.814;2023-04-06T05:32:45;11.30;;;8.90;;
59504;SDS011;45321;53.200;5.814;2023-04-06T05:35:11;12.85;;;8.98;;
59504;SDS011;45321;53.200;5.814;2023-04-06T05:37:38;11.00;;;8.60;;
59504;SDS011;45321;53.200;5.814;2023-04-06T05:40:04;12.13;;;9.45;;
59504;SDS011;45321;53.200;5.814;2023-04-06T05:42:40;15.50;;;9.82;;
59504;SDS011;45321;53.200;5.814;2023-04-06T05:45:07;13.80;;;9.48;;
59504;SDS011;45321;53.200;5.814;2023-04-06T05:47:34;15.43;;;9.02;;
59504;SDS011;45321;53.200;5.814;2023-04-06T05:50:00;12.77;;;9.82;;
59504;SDS011;45321;53.200;5.814;2023-04-06T05:52:26;12.57;;;9.80;;
59504;SDS011;45321;53.200;5.814;2023-04-06T05:54:51;10.95;;;9.07;;
59504;SDS011;45321;53.200;5.814;2023-04-06T05:57:17;13.57;;;9.88;;
59504;SDS011;45321;53.200;5.814;2023-04-06T05:59:43;14.85;;;10.38;;
59504;SDS011;45321;53.200;5.814;2023-04-06T06:02:09;15.32;;;9.68;;
59504;SDS011;45321;53.200;5.814;2023-04-06T06:04:35;13.10;;;8.68;;
59504;SDS011;45321;53.200;5.814;2023-04-06T06:07:01;15.05;;;10.45;;
59504;SDS011;45321;53.200;5.814;2023-04-06T06:09:27;16.58;;;10.23;;
59504;SDS011;45321;53.200;5.814;2023-04-06T06:11:53;13.90;;;10.25;;
59504;SDS011;45321;53.200;5.814;2023-04-06T06:14:19;13.30;;;9.43;;
59504;SDS011;45321;53.200;5.814;2023-04-06T06:16:46;14.48;;;10.75;;
59504;SDS011;45321;53.200;5.814;2023-04-06T06:19:12;15.20;;;10.65;;
59504;SDS011;45321;53.200;5.814;2023-04-06T06:21:38;12.23;;;9.40;;
59504;SDS011;45321;53.200;5.814;2023-04-06T06:24:04;14.63;;;9.57;;
59504;SDS011;45321;53.200;5.814;2023-04-06T06:26:31;10.15;;;8.98;;
59504;SDS011;45321;53.200;5.814;2023-04-06T06:28:57;14.27;;;10.02;;
59504;SDS011;45321;53.200;5.814;2023-04-06T06:31:25;13.32;;;9.48;;
59504;SDS011;45321;53.200;5.814;2023-04-06T06:33:51;13.70;;;9.25;;
59504;SDS011;45321;53.200;5.814;2023-04-06T06:36:17;14.43;;;9.98;;
59504;SDS011;45321;53.200;5.814;2023-04-06T06:38:43;13.90;;;10.75;;
59504;SDS011;45321;53.200;5.814;2023-04-06T06:41:10;14.05;;;9.95;;
59504;SDS011;45321;53.200;5.814;2023-04-06T06:43:36;11.32;;;9.73;;
59504;SDS011;45321;53.200;5.814;2023-04-06T06:46:01;12.82;;;9.73;;
59504;SDS011;45321;53.200;5.814;2023-04-06T06:48:28;13.30;;;9.95;;
59504;SDS011;45321;53.200;5.814;2023-04-06T06:50:53;14.88;;;9.65;;
59504;SDS011;45321;53.200;5.814;2023-04-06T06:53:20;13.05;;;9.93;;
59504;SDS011;45321;53.200;5.814;2023-04-06T06:55:46;17.65;;;11.07;;
59504;SDS011;45321;53.200;5.814;2023-04-06T06:58:13;13.88;;;10.73;;
59504;SDS011;45321;53.200;5.814;2023-04-06T07:00:42;15.50;;;10.85;;
59504;SDS011;45321;53.200;5.814;2023-04-06T07:03:08;16.17;;;11.30;;
59504;SDS011;45321;53.200;5.814;2023-04-06T07:05:34;14.52;;;11.65;;
59504;SDS011;45321;53.200;5.814;2023-04-06T07:08:00;16.85;;;10.90;;
59504;SDS011;45321;53.200;5.814;2023-04-06T07:10:26;14.40;;;10.05;;
59504;SDS011;45321;53.200;5.814;2023-04-06T07:12:52;13.57;;;9.27;;
59504;SDS011;45321;53.200;5.814;2023-04-06T07:15:17;11.85;;;9.80;;
59504;SDS011;45321;53.200;5.814;2023-04-06T07:17:43;13.88;;;9.52;;
59504;SDS011;45321;53.200;5.814;2023-04-06T07:20:10;11.23;;;9.27;;
59504;SDS011;45321;53.200;5.814;2023-04-06T07:22:37;14.25;;;9.68;;
59504;SDS011;45321;53.200;5.814;2023-04-06T07:25:03;12.25;;;9.20;;
59504;SDS011;45321;53.200;5.814;2023-04-06T07:27:30;14.85;;;9.75;;
59504;SDS011;45321;53.200;5.814;2023-04-06T07:29:55;13.02;;;9.52;;
59504;SDS011;45321;53.200;5.814;2023-04-06T07:32:21;15.82;;;9.90;;
59504;SDS011;45321;53.200;5.814;2023-04-06T07:34:50;15.20;;;9.63;;
59504;SDS011;45321;53.200;5.814;2023-04-06T07:37:15;18.02;;;10.75;;
59504;SDS011;45321;53.200;5.814;2023-04-06T07:39:41;12.15;;;9.07;;
59504;SDS011;45321;53.200;5.814;2023-04-06T07:42:07;13.52;;;9.57;;
59504;SDS011;45321;53.200;5.814;2023-04-06T07:44:33;15.80;;;9.77;;
59504;SDS011;45321;53.200;5.814;2023-04-06T07:46:58;13.13;;;9.60;;
59504;SDS011;45321;53.200;5.814;2023-04-06T07:49:24;13.27;;;10.10;;
59504;SDS011;45321;53.200;5.814;2023-04-06T07:51:50;16.23;;;9.50;;
59504;SDS011;45321;53.200;5.814;2023-04-06T07:54:16;11.80;;;9.70;;
59504;SDS011;45321;53.200;5.814;2023-04-06T07:56:42;13.20;;;10.25;;
59504;SDS011;45321;53.200;5.814;2023-04-06T07:59:07;12.32;;;10.02;;
59504;SDS011;45321;53.200;5.814;2023-04-06T08:01:33;12.88;;;9.70;;
59504;SDS011;45321;53.200;5.814;2023-04-06T08:03:59;12.43;;;8.98;;
59504;SDS011;45321;53.200;5.814;2023-04-06T08:06:27;10.98;;;9.73;;
59504;SDS011;45321;53.200;5.814;2023-04-06T08:08:53;11.77;;;9.63;;
59504;SDS011;45321;53.200;5.814;2023-04-06T08:11:19;12.10;;;9.25;;
59504;SDS011;45321;53.200;5.814;2023-04-06T08:13:45;15.88;;;10.25;;
59504;SDS011;45321;53.200;5.814;2023-04-06T08:16:11;12.60;;;9.32;;
59504;SDS011;45321;53.200;5.814;2023-04-06T08:18:37;12.23;;;9.27;;
59504;SDS011;45321;53.200;5.814;2023-04-06T08:21:03;13.30;;;10.13;;
59504;SDS011;45321;53.200;5.814;2023-04-06T08:23:28;10.77;;;9.65;;
59504;SDS011;45321;53.200;5.814;2023-04-06T08:25:54;16.58;;;10.00;;
59504;SDS011;45321;53.200;5.814;2023-04-06T08:28:21;14.15;;;9.73;;
59504;SDS011;45321;53.200;5.814;2023-04-06T08:30:46;13.77;;;10.30;;
59504;SDS011;45321;53.200;5.814;2023-04-06T08:33:12;14.52;;;10.38;;
59504;SDS011;45321;53.200;5.814;2023-04-06T08:35:38;16.17;;;10.95;;
59504;SDS011;45321;53.200;5.814;2023-04-06T08:38:05;16.23;;;10.77;;
59504;SDS011;45321;53.200;5.814;2023-04-06T08:40:35;16.20;;;10.82;;
59504;SDS011;45321;53.200;5.814;2023-04-06T08:43:06;15.45;;;11.25;;
59504;SDS011;45321;53.200;5.814;2023-04-06T08:45:38;16.30;;;10.50;;
59504;SDS011;45321;53.200;5.814;2023-04-06T08:48:05;19.10;;;11.07;;
59504;SDS011;45321;53.200;5.814;2023-04-06T08:50:32;15.38;;;11.25;;
59504;SDS011;45321;53.200;5.814;2023-04-06T08:52:59;14.35;;;11.15;;
59504;SDS011;45321;53.200;5.814;2023-04-06T08:55:26;14.45;;;10.30;;
59504;SDS011;45321;53.200;5.814;2023-04-06T08:57:52;14.93;;;10.65;;
59504;SDS011;45321;53.200;5.814;2023-04-06T09:00:20;22.50;;;13.57;;
59504;SDS011;45321;53.200;5.814;2023-04-06T09:02:46;15.82;;;11.75;;
59504;SDS011;45321;53.200;5.814;2023-04-06T09:05:14;14.73;;;11.98;;
59504;SDS011;45321;53.200;5.814;2023-04-06T09:07:40;14.45;;;11.98;;
59504;SDS011;45321;53.200;5.814;2023-04-06T09:10:07;17.20;;;13.13;;
59504;SDS011;45321;53.200;5.814;2023-04-06T09:12:33;16.63;;;11.55;;
59504;SDS011;45321;53.200;5.814;2023-04-06T09:14:59;17.20;;;13.15;;
59504;SDS011;45321;53.200;5.814;2023-04-06T09:17:30;16.80;;;12.27;;
59504;SDS011;45321;53.200;5.814;2023-04-06T09:19:57;19.27;;;13.57;;
59504;SDS011;45321;53.200;5.814;2023-04-06T09:22:25;19.83;;;13.80;;
59504;SDS011;45321;53.200;5.814;2023-04-06T09:24:53;20.52;;;13.82;;
59504;SDS011;45321;53.200;5.814;2023-04-06T09:27:31;21.70;;;13.95;;
59504;SDS011;45321;53.200;5.814;2023-04-06T09:32:47;21.02;;;14.90;;
59504;SDS011;45321;53.200;5.814;2023-04-06T09:35:18;20.08;;;14.48;;
59504;SDS011;45321;53.200;5.814;2023-04-06T09:37:48;21.10;;;14.43;;
59504;SDS011;45321;53.200;5.814;2023-04-06T09:40:15;17.33;;;14.43;;
59504;SDS011;45321;53.200;5.814;2023-04-06T09:42:47;18.23;;;14.73;;
59504;SDS011;45321;53.200;5.814;2023-04-06T09:45:15;23.17;;;14.75;;
59504;SDS011;45321;53.200;5.814;2023-04-06T09:47:42;19.15;;;14.52;;
59504;SDS011;45321;53.200;5.814;2023-04-06T09:50:10;19.80;;;15.25;;
59504;SDS011;45321;53.200;5.814;2023-04-06T09:52:38;20.45;;;14.52;;
59504;SDS011;45321;53.200;5.814;2023-04-06T09:55:06;19.13;;;14.93;;
59504;SDS011;45321;53.200;5.814;2023-04-06T10:00:23;24.88;;;15.68;;
59504;SDS011;45321;53.200;5.814;2023-04-06T10:06:03;18.48;;;14.82;;
59504;SDS011;45321;53.200;5.814;2023-04-06T10:08:35;20.20;;;15.40;;
59504;SDS011;45321;53.200;5.814;2023-04-06T10:11:05;21.92;;;15.80;;
59504;SDS011;45321;53.200;5.814;2023-04-06T10:13:32;20.65;;;15.45;;
59504;SDS011;45321;53.200;5.814;2023-04-06T10:15:59;20.38;;;15.77;;
59504;SDS011;45321;53.200;5.814;2023-04-06T10:18:26;22.30;;;15.75;;
59504;SDS011;45321;53.200;5.814;2023-04-06T10:20:57;21.35;;;15.93;;
59504;SDS011;45321;53.200;5.814;2023-04-06T10:23:36;22.00;;;16.40;;
59504;SDS011;45321;53.200;5.814;2023-04-06T10:26:05;19.10;;;15.75;;
59504;SDS011;45321;53.200;5.814;2023-04-06T10:28:40;22.48;;;16.35;;
59504;SDS011;45321;53.200;5.814;2023-04-06T10:31:06;21.70;;;17.38;;
59504;SDS011;45321;53.200;5.814;2023-04-06T10:33:32;21.17;;;16.40;;
59504;SDS011;45321;53.200;5.814;2023-04-06T10:36:09;22.00;;;15.73;;
59504;SDS011;45321;53.200;5.814;2023-04-06T10:38:37;23.52;;;15.80;;
59504;SDS011;45321;53.200;5.814;2023-04-06T10:41:06;23.00;;;16.90;;
59504;SDS011;45321;53.200;5.814;2023-04-06T10:43:38;23.45;;;17.38;;
59504;SDS011;45321;53.200;5.814;2023-04-06T10:46:05;22.95;;;16.88;;
59504;SDS011;45321;53.200;5.814;2023-04-06T10:48:42;22.65;;;17.63;;
59504;SDS011;45321;53.200;5.814;2023-04-06T10:53:37;23.80;;;18.63;;
59504;SDS011;45321;53.200;5.814;2023-04-06T10:56:03;25.73;;;17.88;;
59504;SDS011;45321;53.200;5.814;2023-04-06T10:58:34;24.40;;;17.17;;
59504;SDS011;45321;53.200;5.814;2023-04-06T11:00:59;24.77;;;17.73;;
59504;SDS011;45321;53.200;5.814;2023-04-06T11:03:25;24.17;;;18.30;;
59504;SDS011;45321;53.200;5.814;2023-04-06T11:05:52;27.25;;;18.17;;
59504;SDS011;45321;53.200;5.814;2023-04-06T11:08:36;25.63;;;17.55;;
59504;SDS011;45321;53.200;5.814;2023-04-06T11:11:08;23.83;;;18.00;;
59504;SDS011;45321;53.200;5.814;2023-04-06T11:13:54;25.90;;;18.52;;
59504;SDS011;45321;53.200;5.814;2023-04-06T11:21:15;27.92;;;19.05;;
59504;SDS011;45321;53.200;5.814;2023-04-06T11:23:41;27.45;;;19.75;;
59504;SDS011;45321;53.200;5.814;2023-04-06T11:26:11;29.67;;;19.65;;
59504;SDS011;45321;53.200;5.814;2023-04-06T11:28:38;29.83;;;20.35;;
59504;SDS011;45321;53.200;5.814;2023-04-06T11:31:05;31.05;;;20.45;;
59504;SDS011;45321;53.200;5.814;2023-04-06T11:33:34;27.67;;;18.17;;
59504;SDS011;45321;53.200;5.814;2023-04-06T11:36:02;29.52;;;19.35;;
59504;SDS011;45321;53.200;5.814;2023-04-06T11:38:29;24.45;;;18.35;;
59504;SDS011;45321;53.200;5.814;2023-04-06T11:40:55;28.95;;;18.42;;
59504;SDS011;45321;53.200;5.814;2023-04-06T11:43:28;25.30;;;17.00;;
59504;SDS011;45321;53.200;5.814;2023-04-06T11:46:02;28.23;;;18.60;;
59504;SDS011;45321;53.200;5.814;2023-04-06T11:48:29;24.75;;;18.10;;
59504;SDS011;45321;53.200;5.814;2023-04-06T11:50:59;24.17;;;17.77;;
59504;SDS011;45321;53.200;5.814;2023-04-06T11:53:27;21.90;;;16.73;;
59504;SDS011;45321;53.200;5.814;2023-04-06T11:55:53;22.10;;;17.30;;
59504;SDS011;45321;53.200;5.814;2023-04-06T11:58:19;28.80;;;19.27;;
59504;SDS011;45321;53.200;5.814;2023-04-06T12:00:45;26.33;;;18.40;;
59504;SDS011;45321;53.200;5.814;2023-04-06T12:03:12;21.30;;;17.77;;
59504;SDS011;45321;53.200;5.814;2023-04-06T12:05:37;23.58;;;17.85;;
59504;SDS011;45321;53.200;5.814;2023-04-06T12:08:04;28.25;;;17.90;;
59504;SDS011;45321;53.200;5.814;2023-04-06T12:10:29;26.85;;;18.27;;
59504;SDS011;45321;53.200;5.814;2023-04-06T12:12:55;24.98;;;17.95;;
59504;SDS011;45321;53.200;5.814;2023-04-06T12:15:21;24.27;;;17.45;;
59504;SDS011;45321;53.200;5.814;2023-04-06T12:17:47;24.77;;;17.70;;
59504;SDS011;45321;53.200;5.814;2023-04-06T12:20:14;25.35;;;18.50;;
59504;SDS011;45321;53.200;5.814;2023-04-06T12:22:40;19.70;;;15.90;;
59504;SDS011;45321;53.200;5.814;2023-04-06T12:25:06;20.30;;;15.60;;
59504;SDS011;45321;53.200;5.814;2023-04-06T12:27:32;20.83;;;16.92;;
59504;SDS011;45321;53.200;5.814;2023-04-06T12:29:58;24.00;;;17.50;;
59504;SDS011;45321;53.200;5.814;2023-04-06T12:32:24;21.98;;;16.92;;
59504;SDS011;45321;53.200;5.814;2023-04-06T12:34:53;22.67;;;14.90;;
59504;SDS011;45321;53.200;5.814;2023-04-06T12:37:19;15.38;;;10.50;;
59504;SDS011;45321;53.200;5.814;2023-04-06T12:39:45;13.82;;;10.05;;
59504;SDS011;45321;53.200;5.814;2023-04-06T12:42:11;15.15;;;10.55;;
59504;SDS011;45321;53.200;5.814;2023-04-06T12:44:38;15.63;;;11.05;;
59504;SDS011;45321;53.200;5.814;2023-04-06T12:47:04;15.88;;;12.20;;
59504;SDS011;45321;53.200;5.814;2023-04-06T12:49:32;15.82;;;10.75;;
59504;SDS011;45321;53.200;5.814;2023-04-06T12:51:58;15.23;;;10.00;;
59504;SDS011;45321;53.200;5.814;2023-04-06T12:54:24;13.60;;;11.18;;
59504;SDS011;45321;53.200;5.814;2023-04-06T12:56:51;15.15;;;9.73;;
59504;SDS011;45321;53.200;5.814;2023-04-06T12:59:17;13.73;;;10.07;;
59504;SDS011;45321;53.200;5.814;2023-04-06T13:01:43;16.30;;;10.25;;
59504;SDS011;45321;53.200;5.814;2023-04-06T13:04:09;13.90;;;10.43;;
59504;SDS011;45321;53.200;5.814;2023-04-06T13:06:35;11.93;;;9.32;;
59504;SDS011;45321;53.200;5.814;2023-04-06T13:09:01;14.73;;;9.82;;
59504;SDS011;45321;53.200;5.814;2023-04-06T13:11:27;12.63;;;8.60;;
59504;SDS011;45321;53.200;5.814;2023-04-06T13:13:53;11.75;;;9.48;;
59504;SDS011;45321;53.200;5.814;2023-04-06T13:16:19;12.90;;;9.70;;
59504;SDS011;45321;53.200;5.814;2023-04-06T13:18:44;19.00;;;9.40;;
59504;SDS011;45321;53.200;5.814;2023-04-06T13:21:12;14.73;;;8.73;;
59504;SDS011;45321;53.200;5.814;2023-04-06T13:23:41;12.88;;;9.25;;
59504;SDS011;45321;53.200;5.814;2023-04-06T13:26:07;12.75;;;9.80;;
59504;SDS011;45321;53.200;5.814;2023-04-06T13:28:33;14.73;;;11.63;;
59504;SDS011;45321;53.200;5.814;2023-04-06T13:31:00;15.32;;;11.80;;
59504;SDS011;45321;53.200;5.814;2023-04-06T13:33:27;16.80;;;12.40;;
59504;SDS011;45321;53.200;5.814;2023-04-06T13:35:54;18.05;;;13.30;;
59504;SDS011;45321;53.200;5.814;2023-04-06T13:38:20;16.85;;;13.50;;
59504;SDS011;45321;53.200;5.814;2023-04-06T13:40:46;19.48;;;14.25;;
59504;SDS011;45321;53.200;5.814;2023-04-06T13:43:13;18.65;;;14.32;;
59504;SDS011;45321;53.200;5.814;2023-04-06T13:45:40;18.50;;;14.10;;
59504;SDS011;45321;53.200;5.814;2023-04-06T13:48:05;19.23;;;14.25;;
59504;SDS011;45321;53.200;5.814;2023-04-06T13:50:32;19.75;;;13.57;;
59504;SDS011;45321;53.200;5.814;2023-04-06T13:52:58;19.80;;;14.15;;
59504;SDS011;45321;53.200;5.814;2023-04-06T13:55:24;17.58;;;13.80;;
59504;SDS011;45321;53.200;5.814;2023-04-06T13:57:50;21.95;;;13.93;;
59504;SDS011;45321;53.200;5.814;2023-04-06T14:00:16;20.35;;;15.27;;
59504;SDS011;45321;53.200;5.814;2023-04-06T14:02:42;19.83;;;14.10;;
59504;SDS011;45321;53.200;5.814;2023-04-06T14:05:10;22.55;;;16.02;;
59504;SDS011;45321;53.200;5.814;2023-04-06T14:07:36;19.33;;;14.18;;
59504;SDS011;45321;53.200;5.814;2023-04-06T14:10:02;22.30;;;15.52;;
59504;SDS011;45321;53.200;5.814;2023-04-06T14:12:29;20.90;;;14.77;;
59504;SDS011;45321;53.200;5.814;2023-04-06T14:14:56;23.25;;;16.00;;
59504;SDS011;45321;53.200;5.814;2023-04-06T14:17:22;24.38;;;16.67;;
59504;SDS011;45321;53.200;5.814;2023-04-06T14:19:48;22.17;;;15.07;;
59504;SDS011;45321;53.200;5.814;2023-04-06T14:22:14;21.98;;;15.93;;
59504;SDS011;45321;53.200;5.814;2023-04-06T14:24:39;24.13;;;17.13;;
59504;SDS011;45321;53.200;5.814;2023-04-06T14:27:05;20.75;;;16.73;;
59504;SDS011;45321;53.200;5.814;2023-04-06T14:29:31;19.55;;;16.77;;
59504;SDS011;45321;53.200;5.814;2023-04-06T14:31:57;21.13;;;16.00;;
59504;SDS011;45321;53.200;5.814;2023-04-06T14:34:28;22.23;;;16.88;;
59504;SDS011;45321;53.200;5.814;2023-04-06T14:36:54;23.40;;;17.23;;
59504;SDS011;45321;53.200;5.814;2023-04-06T14:39:20;25.48;;;18.83;;
59504;SDS011;45321;53.200;5.814;2023-04-06T14:41:46;23.60;;;18.10;;
59504;SDS011;45321;53.200;5.814;2023-04-06T14:44:12;23.02;;;17.33;;
59504;SDS011;45321;53.200;5.814;2023-04-06T14:46:41;21.85;;;17.02;;